Time;durP1;ratioP1;P1;durP2;ratioP2;P2;SDS_P1;SDS_P2;PMS_P1;PMS_P2;Temp;Humidity;BMP_temperature;BMP_pressure;BME280_temperature;BME280_humidity;BME280_pressure;Samples;Min_cycle;Max_cycle;Signal;HPM_P1;HPM_P2
2022/06/03 00:00:46;;;;;;;14.35;13.05;;;;;;;13.17;75.71875;95467.17;;;;
2022/06/03 00:02:03;;;;;;;14.35;13.05;;;;;;;13.17;75.71875;95467.17;;;;
2022/06/03 00:03:54;;;;;;;14.35;13.05;;;;;;;13.17;75.71875;95467.17;;;;
2022/06/03 00:05:10;;;;;;;14.35;13.05;;;;;;;13.17;75.71875;95467.17;;;;
2022/06/03 00:06:44;;;;;;;14.35;13.05;;;;;;;13.17;75.71875;95467.17;;;;
2022/06/03 00:08:01;;;;;;;14.35;13.05;;;;;;;13.17;75.71875;95467.17;;;;
2022/06/03 00:09:12;;;;;;;14.35;13.05;;;;;;;13.17;75.71875;95467.17;;;;
2022/06/03 00:10:38;;;;;;;15.05;13.55;;;;;;;13.12;75.97168;95465.2;;;;
2022/06/03 00:11:57;;;;;;;15.05;13.55;;;;;;;13.12;75.97168;95465.2;;;;
2022/06/03 00:13:15;;;;;;;15.05;13.55;;;;;;;13.12;75.97168;95465.2;;;;
2022/06/03 00:14:37;;;;;;;15.05;13.55;;;;;;;13.12;75.97168;95465.2;;;;
2022/06/03 00:15:52;;;;;;;15.05;13.55;;;;;;;13.12;75.97168;95465.2;;;;
2022/06/03 00:17:06;;;;;;;15.05;13.55;;;;;;;13.12;75.97168;95465.2;;;;
2022/06/03 00:18:22;;;;;;;15.05;13.55;;;;;;;13.12;75.97168;95465.2;;;;
2022/06/03 00:19:47;;;;;;;15.05;13.55;;;;;;;13.12;75.97168;95465.2;;;;
2022/06/03 00:21:02;;;;;;;14.25;12.95;;;;;;;13.02;76.21191;95452.14;;;;
2022/06/03 00:22:05;;;;;;;14.25;12.95;;;;;;;13.02;76.21191;95452.14;;;;
2022/06/03 00:23:21;;;;;;;14.25;12.95;;;;;;;13.02;76.21191;95452.14;;;;
2022/06/03 00:24:54;;;;;;;14.25;12.95;;;;;;;13.02;76.21191;95452.14;;;;
2022/06/03 00:26:11;;;;;;;14.25;12.95;;;;;;;13.02;76.21191;95452.14;;;;
2022/06/03 00:27:24;;;;;;;14.25;12.95;;;;;;;13.02;76.21191;95452.14;;;;
2022/06/03 00:28:47;;;;;;;14.25;12.95;;;;;;;13.02;76.21191;95452.14;;;;
2022/06/03 00:30:00;;;;;;;14.25;12.95;;;;;;;13.02;76.21191;95452.14;;;;
2022/06/03 00:31:16;;;;;;;13.65;12.4;;;;;;;12.99;76.48828;95447.25;;;;
2022/06/03 00:32:44;;;;;;;13.65;12.4;;;;;;;12.99;76.48828;95447.25;;;;
2022/06/03 00:34:06;;;;;;;13.65;12.4;;;;;;;12.99;76.48828;95447.25;;;;
2022/06/03 00:35:19;;;;;;;13.65;12.4;;;;;;;12.99;76.48828;95447.25;;;;
2022/06/03 00:36:36;;;;;;;13.65;12.4;;;;;;;12.99;76.48828;95447.25;;;;
2022/06/03 00:37:52;;;;;;;13.65;12.4;;;;;;;12.99;76.48828;95447.25;;;;
2022/06/03 00:38:54;;;;;;;13.65;12.4;;;;;;;12.99;76.48828;95447.25;;;;
2022/06/03 00:40:07;;;;;;;13.65;12.4;;;;;;;12.99;76.48828;95447.25;;;;
2022/06/03 00:41:27;;;;;;;13.65;12.4;;;;;;;12.99;76.48828;95447.25;;;;
2022/06/03 00:42:38;;;;;;;14.25;13;;;;;;;12.85;76.66992;95434.68;;;;
2022/06/03 00:44:00;;;;;;;14.25;13;;;;;;;12.85;76.66992;95434.68;;;;
2022/06/03 00:45:18;;;;;;;14.25;13;;;;;;;12.85;76.66992;95434.68;;;;
2022/06/03 00:46:46;;;;;;;14.25;13;;;;;;;12.85;76.66992;95434.68;;;;
2022/06/03 00:48:14;;;;;;;14.25;13;;;;;;;12.85;76.66992;95434.68;;;;
2022/06/03 00:49:34;;;;;;;14.25;13;;;;;;;12.85;76.66992;95434.68;;;;
2022/06/03 00:50:57;;;;;;;14.25;13;;;;;;;12.85;76.66992;95434.68;;;;
2022/06/03 00:52:14;;;;;;;14.25;13;;;;;;;12.85;76.66992;95434.68;;;;
2022/06/03 00:53:35;;;;;;;13.85;12.6;;;;;;;12.79;76.88477;95429.44;;;;
2022/06/03 00:59:04;;;;;;;13.85;12.6;;;;;;;12.79;76.88477;95429.44;;;;
2022/06/03 01:00:17;;;;;;;13.85;12.6;;;;;;;12.79;76.88477;95429.44;;;;
2022/06/03 01:01:21;;;;;;;13.85;12.6;;;;;;;12.79;76.88477;95429.44;;;;
2022/06/03 01:02:29;;;;;;;13.85;12.6;;;;;;;12.79;76.88477;95429.44;;;;
2022/06/03 01:03:45;;;;;;;13.85;12.6;;;;;;;12.79;76.88477;95429.44;;;;
2022/06/03 01:05:03;;;;;;;13.85;12.6;;;;;;;12.79;76.88477;95429.44;;;;
2022/06/03 01:06:15;;;;;;;13.85;12.6;;;;;;;12.79;76.88477;95429.44;;;;
2022/06/03 01:07:23;;;;;;;13.85;12.6;;;;;;;12.79;76.88477;95429.44;;;;
2022/06/03 01:08:35;;;;;;;13.85;12.6;;;;;;;12.79;76.88477;95429.44;;;;
2022/06/03 01:09:49;;;;;;;13.85;12.6;;;;;;;12.79;76.88477;95429.44;;;;
2022/06/03 01:11:08;;;;;;;13.85;12.6;;;;;;;12.79;76.88477;95429.44;;;;
2022/06/03 01:12:19;;;;;;;13.85;12.6;;;;;;;12.79;76.88477;95429.44;;;;
2022/06/03 01:13:35;;;;;;;13.85;12.6;;;;;;;12.79;76.88477;95429.44;;;;
2022/06/03 01:14:58;;;;;;;14.1;12.9;;;;;;;12.6;77.35059;95428.62;;;;
2022/06/03 01:16:14;;;;;;;14.1;12.9;;;;;;;12.6;77.35059;95428.62;;;;
2022/06/03 01:17:29;;;;;;;14.1;12.9;;;;;;;12.6;77.35059;95428.62;;;;
2022/06/03 01:18:39;;;;;;;14.1;12.9;;;;;;;12.6;77.35059;95428.62;;;;
2022/06/03 01:19:48;;;;;;;14.1;12.9;;;;;;;12.6;77.35059;95428.62;;;;
2022/06/03 01:21:02;;;;;;;14.1;12.9;;;;;;;12.6;77.35059;95428.62;;;;
2022/06/03 01:22:10;;;;;;;14.1;12.9;;;;;;;12.6;77.35059;95428.62;;;;
2022/06/03 01:23:34;;;;;;;14.1;12.9;;;;;;;12.6;77.35059;95428.62;;;;
2022/06/03 01:24:54;;;;;;;14.3;13.1;;;;;;;12.49;77.52539;95417.02;;;;
2022/06/03 01:26:17;;;;;;;14.3;13.1;;;;;;;12.49;77.52539;95417.02;;;;
2022/06/03 01:27:33;;;;;;;14.3;13.1;;;;;;;12.49;77.52539;95417.02;;;;
2022/06/03 01:29:12;;;;;;;14.3;13.1;;;;;;;12.49;77.52539;95417.02;;;;
2022/06/03 01:30:31;;;;;;;14.3;13.1;;;;;;;12.49;77.52539;95417.02;;;;
2022/06/03 01:31:50;;;;;;;14.3;13.1;;;;;;;12.49;77.52539;95417.02;;;;
2022/06/03 01:33:38;;;;;;;14.3;13.1;;;;;;;12.49;77.52539;95417.02;;;;
2022/06/03 01:34:56;;;;;;;14.3;13.1;;;;;;;12.49;77.52539;95417.02;;;;
2022/06/03 01:36:17;;;;;;;15.35;13.9;;;;;;;12.43;77.69922;95418.31;;;;
2022/06/03 01:37:39;;;;;;;15.35;13.9;;;;;;;12.43;77.69922;95418.31;;;;
2022/06/03 01:38:47;;;;;;;15.35;13.9;;;;;;;12.43;77.69922;95418.31;;;;
2022/06/03 01:40:02;;;;;;;15.35;13.9;;;;;;;12.43;77.69922;95418.31;;;;
2022/06/03 01:41:21;;;;;;;15.35;13.9;;;;;;;12.43;77.69922;95418.31;;;;
2022/06/03 01:42:37;;;;;;;15.35;13.9;;;;;;;12.43;77.69922;95418.31;;;;
2022/06/03 01:43:55;;;;;;;15.35;13.9;;;;;;;12.43;77.69922;95418.31;;;;
2022/06/03 01:45:10;;;;;;;15.35;13.9;;;;;;;12.43;77.69922;95418.31;;;;
2022/06/03 01:46:30;;;;;;;15.35;13.95;;;;;;;12.3;77.87012;95403.33;;;;
2022/06/03 01:47:32;;;;;;;15.35;13.95;;;;;;;12.3;77.87012;95403.33;;;;
2022/06/03 01:49:01;;;;;;;15.35;13.95;;;;;;;12.3;77.87012;95403.33;;;;
2022/06/03 01:54:15;;;;;;;15.35;13.95;;;;;;;12.3;77.87012;95403.33;;;;
2022/06/03 01:55:42;;;;;;;15.35;13.95;;;;;;;12.3;77.87012;95403.33;;;;
2022/06/03 02:01:01;;;;;;;14.75;13.45;;;;;;;12.26;78.03418;95389.42;;;;
2022/06/03 02:02:23;;;;;;;14.75;13.45;;;;;;;12.26;78.03418;95389.42;;;;
2022/06/03 02:03:59;;;;;;;14.75;13.45;;;;;;;12.26;78.03418;95389.42;;;;
2022/06/03 02:05:17;;;;;;;14.75;13.45;;;;;;;12.26;78.03418;95389.42;;;;
2022/06/03 02:06:33;;;;;;;14.75;13.45;;;;;;;12.26;78.03418;95389.42;;;;
2022/06/03 02:08:10;;;;;;;13.55;12.3;;;;;;;12.13;78.20605;95402.29;;;;
2022/06/03 02:13:42;;;;;;;13.55;12.3;;;;;;;12.13;78.20605;95402.29;;;;
2022/06/03 02:16:05;;;;;;;13.55;12.3;;;;;;;12.13;78.20605;95402.29;;;;
2022/06/03 02:17:33;;;;;;;13.55;12.3;;;;;;;12.13;78.20605;95402.29;;;;
2022/06/03 02:18:59;;;;;;;12.75;11.5;;;;;;;12.08;78.41211;95408.87;;;;
2022/06/03 02:21:17;;;;;;;12.75;11.5;;;;;;;12.08;78.41211;95408.87;;;;
2022/06/03 02:22:41;;;;;;;12.75;11.5;;;;;;;12.08;78.41211;95408.87;;;;
2022/06/03 02:24:05;;;;;;;12.75;11.5;;;;;;;12.08;78.41211;95408.87;;;;
2022/06/03 02:25:26;;;;;;;12.75;11.5;;;;;;;12.08;78.41211;95408.87;;;;
2022/06/03 02:26:44;;;;;;;12.75;11.5;;;;;;;12.08;78.41211;95408.87;;;;
2022/06/03 02:28:22;;;;;;;12.45;11.35;;;;;;;11.95;78.56152;95415.62;;;;
2022/06/03 02:30:43;;;;;;;12.45;11.35;;;;;;;11.95;78.56152;95415.62;;;;
2022/06/03 02:32:06;;;;;;;12.45;11.35;;;;;;;11.95;78.56152;95415.62;;;;
2022/06/03 02:33:24;;;;;;;12.45;11.35;;;;;;;11.95;78.56152;95415.62;;;;
2022/06/03 02:38:43;;;;;;;12.45;11.35;;;;;;;11.95;78.56152;95415.62;;;;
2022/06/03 02:39:57;;;;;;;12.45;11.45;;;;;;;11.89;78.71289;95385.91;;;;
2022/06/03 02:41:22;;;;;;;12.45;11.45;;;;;;;11.89;78.71289;95385.91;;;;
2022/06/03 02:43:18;;;;;;;12.45;11.45;;;;;;;11.89;78.71289;95385.91;;;;
2022/06/03 02:44:41;;;;;;;12.45;11.45;;;;;;;11.89;78.71289;95385.91;;;;
2022/06/03 02:46:06;;;;;;;12.45;11.45;;;;;;;11.89;78.71289;95385.91;;;;
2022/06/03 02:47:35;;;;;;;12.45;11.45;;;;;;;11.89;78.71289;95385.91;;;;
2022/06/03 02:49:15;;;;;;;12.45;11.45;;;;;;;11.89;78.71289;95385.91;;;;
2022/06/03 02:50:42;;;;;;;12.65;11.55;;;;;;;11.79;78.8457;95370.19;;;;
2022/06/03 02:51:53;;;;;;;12.65;11.55;;;;;;;11.79;78.8457;95370.19;;;;
2022/06/03 02:53:17;;;;;;;12.65;11.55;;;;;;;11.79;78.8457;95370.19;;;;
2022/06/03 02:54:43;;;;;;;12.65;11.55;;;;;;;11.79;78.8457;95370.19;;;;
2022/06/03 03:00:03;;;;;;;12.65;11.55;;;;;;;11.79;78.8457;95370.19;;;;
2022/06/03 03:01:28;;;;;;;12.2;11.1;;;;;;;11.74;78.99805;95376.64;;;;
2022/06/03 03:02:46;;;;;;;12.2;11.1;;;;;;;11.74;78.99805;95376.64;;;;
2022/06/03 03:08:11;;;;;;;12.2;11.1;;;;;;;11.74;78.99805;95376.64;;;;
2022/06/03 03:09:34;;;;;;;12.2;11.1;;;;;;;11.74;78.99805;95376.64;;;;
2022/06/03 03:10:50;;;;;;;12.2;11.1;;;;;;;11.74;78.99805;95376.64;;;;
2022/06/03 03:12:13;;;;;;;13.05;11.95;;;;;;;11.65;79.15332;95401.28;;;;
2022/06/03 03:13:51;;;;;;;13.05;11.95;;;;;;;11.65;79.15332;95401.28;;;;
2022/06/03 03:15:42;;;;;;;13.05;11.95;;;;;;;11.65;79.15332;95401.28;;;;
2022/06/03 03:17:04;;;;;;;13.05;11.95;;;;;;;11.65;79.15332;95401.28;;;;
2022/06/03 03:18:32;;;;;;;13.05;11.95;;;;;;;11.65;79.15332;95401.28;;;;
2022/06/03 03:19:58;;;;;;;13.05;11.95;;;;;;;11.65;79.15332;95401.28;;;;
2022/06/03 03:21:25;;;;;;;13.05;11.95;;;;;;;11.65;79.15332;95401.28;;;;
2022/06/03 03:22:41;;;;;;;12.75;11.65;;;;;;;11.69;79.24805;95407.34;;;;
2022/06/03 03:23:57;;;;;;;12.75;11.65;;;;;;;11.69;79.24805;95407.34;;;;
2022/06/03 03:25:20;;;;;;;12.75;11.65;;;;;;;11.69;79.24805;95407.34;;;;
2022/06/03 03:26:32;;;;;;;12.75;11.65;;;;;;;11.69;79.24805;95407.34;;;;
2022/06/03 03:27:47;;;;;;;12.75;11.65;;;;;;;11.69;79.24805;95407.34;;;;
2022/06/03 03:29:05;;;;;;;12.75;11.65;;;;;;;11.69;79.24805;95407.34;;;;
2022/06/03 03:30:25;;;;;;;12.75;11.65;;;;;;;11.69;79.24805;95407.34;;;;
2022/06/03 03:31:30;;;;;;;12.75;11.65;;;;;;;11.69;79.24805;95407.34;;;;
2022/06/03 03:32:46;;;;;;;12.6;11.35;;;;;;;11.67;79.33105;95408.88;;;;
2022/06/03 03:34:06;;;;;;;12.6;11.35;;;;;;;11.67;79.33105;95408.88;;;;
2022/06/03 03:35:18;;;;;;;12.6;11.35;;;;;;;11.67;79.33105;95408.88;;;;
2022/06/03 03:36:37;;;;;;;12.6;11.35;;;;;;;11.67;79.33105;95408.88;;;;
2022/06/03 03:37:56;;;;;;;12.6;11.35;;;;;;;11.67;79.33105;95408.88;;;;
2022/06/03 03:39:27;;;;;;;12.6;11.35;;;;;;;11.67;79.33105;95408.88;;;;
2022/06/03 03:40:51;;;;;;;12.6;11.35;;;;;;;11.67;79.33105;95408.88;;;;
2022/06/03 03:42:15;;;;;;;12.6;11.35;;;;;;;11.67;79.33105;95408.88;;;;
2022/06/03 03:43:37;;;;;;;12.65;11.45;;;;;;;11.73;79.41699;95413.44;;;;
2022/06/03 03:44:54;;;;;;;12.65;11.45;;;;;;;11.73;79.41699;95413.44;;;;
2022/06/03 03:47:31;;;;;;;12.65;11.45;;;;;;;11.73;79.41699;95413.44;;;;
2022/06/03 03:52:56;;;;;;;12.65;11.45;;;;;;;11.73;79.41699;95413.44;;;;
2022/06/03 03:55:25;;;;;;;12.95;11.7;;;;;;;11.71;79.52148;95414.15;;;;
2022/06/03 03:57:18;;;;;;;12.95;11.7;;;;;;;11.71;79.52148;95414.15;;;;
2022/06/03 03:58:43;;;;;;;12.95;11.7;;;;;;;11.71;79.52148;95414.15;;;;
2022/06/03 04:04:04;;;;;;;12.95;11.7;;;;;;;11.71;79.52148;95414.15;;;;
2022/06/03 04:05:30;;;;;;;14.15;12.85;;;;;;;11.86;79.68848;95420.78;;;;
2022/06/03 04:06:51;;;;;;;14.15;12.85;;;;;;;11.86;79.68848;95420.78;;;;
2022/06/03 04:08:09;;;;;;;14.15;12.85;;;;;;;11.86;79.68848;95420.78;;;;
2022/06/03 04:09:35;;;;;;;14.15;12.85;;;;;;;11.86;79.68848;95420.78;;;;
2022/06/03 04:11:29;;;;;;;14.15;12.85;;;;;;;11.86;79.68848;95420.78;;;;
2022/06/03 04:13:06;;;;;;;14.15;12.85;;;;;;;11.86;79.68848;95420.78;;;;
2022/06/03 04:14:41;;;;;;;14.15;12.85;;;;;;;11.86;79.68848;95420.78;;;;
2022/06/03 04:16:06;;;;;;;14;12.75;;;;;;;12.09;79.59961;95424.14;;;;
2022/06/03 04:17:36;;;;;;;14;12.75;;;;;;;12.09;79.59961;95424.14;;;;
2022/06/03 04:22:45;;;;;;;14;12.75;;;;;;;12.09;79.59961;95424.14;;;;
2022/06/03 04:24:06;;;;;;;14;12.75;;;;;;;12.09;79.59961;95424.14;;;;
2022/06/03 04:27:27;;;;;;;14;12.6;;;;;;;12.28;79.63379;95439.97;;;;
2022/06/03 04:28:49;;;;;;;14;12.6;;;;;;;12.28;79.63379;95439.97;;;;
2022/06/03 04:29:59;;;;;;;14;12.6;;;;;;;12.28;79.63379;95439.97;;;;
2022/06/03 04:31:54;;;;;;;14;12.6;;;;;;;12.28;79.63379;95439.97;;;;
2022/06/03 04:33:23;;;;;;;14;12.6;;;;;;;12.28;79.63379;95439.97;;;;
2022/06/03 04:34:52;;;;;;;14;12.6;;;;;;;12.28;79.63379;95439.97;;;;
2022/06/03 04:37:32;;;;;;;14.25;12.95;;;;;;;12.49;79.82422;95438.23;;;;
2022/06/03 04:39:14;;;;;;;14.25;12.95;;;;;;;12.49;79.82422;95438.23;;;;
2022/06/03 04:44:56;;;;;;;14.25;12.95;;;;;;;12.49;79.82422;95438.23;;;;
2022/06/03 04:46:32;;;;;;;14.25;12.95;;;;;;;12.49;79.82422;95438.23;;;;
2022/06/03 04:48:08;;;;;;;17.85;16.2;;;;;;;13.12;79.72363;95429.78;;;;
2022/06/03 04:51:03;;;;;;;17.85;16.2;;;;;;;13.12;79.72363;95429.78;;;;
2022/06/03 04:52:39;;;;;;;17.85;16.2;;;;;;;13.12;79.72363;95429.78;;;;
2022/06/03 05:00:03;;;;;;;14.3;13;;;;;;;13.81;79.39355;95428.81;;;;
2022/06/03 05:01:17;;;;;;;14.3;13;;;;;;;13.81;79.39355;95428.81;;;;
2022/06/03 05:02:47;;;;;;;14.3;13;;;;;;;13.81;79.39355;95428.81;;;;
2022/06/03 05:08:18;;;;;;;14.3;13;;;;;;;13.81;79.39355;95428.81;;;;
2022/06/03 05:13:57;;;;;;;12;10.25;;;;;;;14.56;79.17969;95425.8;;;;
2022/06/03 05:16:33;;;;;;;12;10.25;;;;;;;14.56;79.17969;95425.8;;;;
2022/06/03 05:22:29;;;;;;;9.399999;8.6;;;;;;;14.89;78.93457;95406.95;;;;
2022/06/03 05:23:47;;;;;;;9.399999;8.6;;;;;;;14.89;78.93457;95406.95;;;;
2022/06/03 05:25:14;;;;;;;9.399999;8.6;;;;;;;14.89;78.93457;95406.95;;;;
2022/06/03 05:26:31;;;;;;;9.399999;8.6;;;;;;;14.89;78.93457;95406.95;;;;
2022/06/03 05:28:19;;;;;;;9.399999;8.6;;;;;;;14.89;78.93457;95406.95;;;;
2022/06/03 05:32:02;;;;;;;9.65;8.65;;;;;;;15.2;78.96973;95398.02;;;;
2022/06/03 05:33:25;;;;;;;9.65;8.65;;;;;;;15.2;78.96973;95398.02;;;;
2022/06/03 05:34:44;;;;;;;9.65;8.65;;;;;;;15.2;78.96973;95398.02;;;;
2022/06/03 05:36:01;;;;;;;9.65;8.65;;;;;;;15.2;78.96973;95398.02;;;;
2022/06/03 05:37:36;;;;;;;9.65;8.65;;;;;;;15.2;78.96973;95398.02;;;;
2022/06/03 05:38:51;;;;;;;9.65;8.65;;;;;;;15.2;78.96973;95398.02;;;;
2022/06/03 05:40:25;;;;;;;9.65;8.65;;;;;;;15.2;78.96973;95398.02;;;;
2022/06/03 05:42:47;;;;;;;8.6;7.849999;;;;;;;15.52;78.76563;95400.51;;;;
2022/06/03 05:44:15;;;;;;;8.6;7.849999;;;;;;;15.52;78.76563;95400.51;;;;
2022/06/03 05:45:32;;;;;;;8.6;7.849999;;;;;;;15.52;78.76563;95400.51;;;;
2022/06/03 05:46:52;;;;;;;8.6;7.849999;;;;;;;15.52;78.76563;95400.51;;;;
2022/06/03 05:48:00;;;;;;;8.6;7.849999;;;;;;;15.52;78.76563;95400.51;;;;
2022/06/03 05:49:08;;;;;;;8.6;7.849999;;;;;;;15.52;78.76563;95400.51;;;;
2022/06/03 05:50:22;;;;;;;8.6;7.849999;;;;;;;15.52;78.76563;95400.51;;;;
2022/06/03 05:51:33;;;;;;;7.05;6.349999;;;;;;;16.01;78.57031;95393.62;;;;
2022/06/03 05:52:51;;;;;;;7.05;6.349999;;;;;;;16.01;78.57031;95393.62;;;;
2022/06/03 05:54:09;;;;;;;7.05;6.349999;;;;;;;16.01;78.57031;95393.62;;;;
2022/06/03 05:55:20;;;;;;;7.05;6.349999;;;;;;;16.01;78.57031;95393.62;;;;
2022/06/03 05:56:34;;;;;;;7.05;6.349999;;;;;;;16.01;78.57031;95393.62;;;;
2022/06/03 05:57:45;;;;;;;7.05;6.349999;;;;;;;16.01;78.57031;95393.62;;;;
2022/06/03 05:59:05;;;;;;;7.05;6.349999;;;;;;;16.01;78.57031;95393.62;;;;
2022/06/03 06:00:15;;;;;;;7.05;6.349999;;;;;;;16.01;78.57031;95393.62;;;;
2022/06/03 06:01:34;;;;;;;7.05;6.349999;;;;;;;16.01;78.57031;95393.62;;;;
2022/06/03 06:03:16;;;;;;;6.25;5;;;;;;;16.65;78.1709;95373.11;;;;
2022/06/03 06:04:29;;;;;;;6.25;5;;;;;;;16.65;78.1709;95373.11;;;;
2022/06/03 06:05:43;;;;;;;6.25;5;;;;;;;16.65;78.1709;95373.11;;;;
2022/06/03 06:06:54;;;;;;;6.25;5;;;;;;;16.65;78.1709;95373.11;;;;
2022/06/03 06:08:05;;;;;;;6.25;5;;;;;;;16.65;78.1709;95373.11;;;;
2022/06/03 06:09:16;;;;;;;6.25;5;;;;;;;16.65;78.1709;95373.11;;;;
2022/06/03 06:10:30;;;;;;;6.25;5;;;;;;;16.65;78.1709;95373.11;;;;
2022/06/03 06:11:40;;;;;;;6.25;5;;;;;;;16.65;78.1709;95373.11;;;;
2022/06/03 06:12:58;;;;;;;5.650001;4.9;;;;;;;17.7;77.22168;95392.5;;;;
2022/06/03 06:14:15;;;;;;;5.650001;4.9;;;;;;;17.7;77.22168;95392.5;;;;
2022/06/03 06:15:29;;;;;;;5.650001;4.9;;;;;;;17.7;77.22168;95392.5;;;;
2022/06/03 06:16:53;;;;;;;5.650001;4.9;;;;;;;17.7;77.22168;95392.5;;;;
2022/06/03 06:17:59;;;;;;;5.650001;4.9;;;;;;;17.7;77.22168;95392.5;;;;
2022/06/03 06:19:08;;;;;;;5.650001;4.9;;;;;;;17.7;77.22168;95392.5;;;;
2022/06/03 06:20:15;;;;;;;5.650001;4.9;;;;;;;17.7;77.22168;95392.5;;;;
2022/06/03 06:21:29;;;;;;;5.650001;4.9;;;;;;;17.7;77.22168;95392.5;;;;
2022/06/03 06:22:49;;;;;;;5.650001;4.9;;;;;;;17.7;77.22168;95392.5;;;;
2022/06/03 06:23:56;;;;;;;5.050001;4.3;;;;;;;18.8;76.11914;95384.55;;;;
2022/06/03 06:25:07;;;;;;;5.050001;4.3;;;;;;;18.8;76.11914;95384.55;;;;
2022/06/03 06:26:13;;;;;;;5.050001;4.3;;;;;;;18.8;76.11914;95384.55;;;;
2022/06/03 06:27:36;;;;;;;5.050001;4.3;;;;;;;18.8;76.11914;95384.55;;;;
2022/06/03 06:29:28;;;;;;;5.050001;4.3;;;;;;;18.8;76.11914;95384.55;;;;
2022/06/03 06:30:57;;;;;;;5.050001;4.3;;;;;;;18.8;76.11914;95384.55;;;;
2022/06/03 06:32:16;;;;;;;5.050001;4.3;;;;;;;18.8;76.11914;95384.55;;;;
2022/06/03 06:37:43;;;;;;;4.3;4;;;;;;;19.85;74.98047;95395.76;;;;
2022/06/03 06:39:07;;;;;;;4.3;4;;;;;;;19.85;74.98047;95395.76;;;;
2022/06/03 06:40:21;;;;;;;4.3;4;;;;;;;19.85;74.98047;95395.76;;;;
2022/06/03 06:41:37;;;;;;;4.3;4;;;;;;;19.85;74.98047;95395.76;;;;
2022/06/03 06:42:51;;;;;;;4.3;4;;;;;;;19.85;74.98047;95395.76;;;;
2022/06/03 06:44:01;;;;;;;4.3;4;;;;;;;19.85;74.98047;95395.76;;;;
2022/06/03 06:45:06;;;;;;;4.5;4.099999;;;;;;;21.47;72.86816;95387.72;;;;
2022/06/03 06:46:22;;;;;;;4.5;4.099999;;;;;;;21.47;72.86816;95387.72;;;;
2022/06/03 06:47:31;;;;;;;4.5;4.099999;;;;;;;21.47;72.86816;95387.72;;;;
2022/06/03 06:48:37;;;;;;;4.5;4.099999;;;;;;;21.47;72.86816;95387.72;;;;
2022/06/03 06:49:49;;;;;;;4.5;4.099999;;;;;;;21.47;72.86816;95387.72;;;;
2022/06/03 06:51:05;;;;;;;4.5;4.099999;;;;;;;21.47;72.86816;95387.72;;;;
2022/06/03 06:52:32;;;;;;;4.5;4.099999;;;;;;;21.47;72.86816;95387.72;;;;
2022/06/03 06:53:40;;;;;;;4.5;4.099999;;;;;;;21.47;72.86816;95387.72;;;;
2022/06/03 06:54:49;;;;;;;4.5;4.099999;;;;;;;21.47;72.86816;95387.72;;;;
2022/06/03 06:55:58;;;;;;;4.05;3.75;;;;;;;22.11;72.04492;95392.89;;;;
2022/06/03 06:57:09;;;;;;;4.05;3.75;;;;;;;22.11;72.04492;95392.89;;;;
2022/06/03 06:58:15;;;;;;;4.05;3.75;;;;;;;22.11;72.04492;95392.89;;;;
2022/06/03 06:59:29;;;;;;;4.05;3.75;;;;;;;22.11;72.04492;95392.89;;;;
2022/06/03 07:00:36;;;;;;;4.05;3.75;;;;;;;22.11;72.04492;95392.89;;;;
2022/06/03 07:01:42;;;;;;;4.05;3.75;;;;;;;22.11;72.04492;95392.89;;;;
2022/06/03 07:02:48;;;;;;;4.05;3.75;;;;;;;22.11;72.04492;95392.89;;;;
2022/06/03 07:03:53;;;;;;;4.05;3.75;;;;;;;22.11;72.04492;95392.89;;;;
2022/06/03 07:04:58;;;;;;;4.05;3.75;;;;;;;22.11;72.04492;95392.89;;;;
2022/06/03 07:06:04;;;;;;;4.05;3.75;;;;;;;22.11;72.04492;95392.89;;;;
2022/06/03 07:07:14;;;;;;;4.199999;3.8;;;;;;;22.66;70.75977;95383.54;;;;
2022/06/03 07:08:23;;;;;;;4.199999;3.8;;;;;;;22.66;70.75977;95383.54;;;;
2022/06/03 07:09:28;;;;;;;4.199999;3.8;;;;;;;22.66;70.75977;95383.54;;;;
2022/06/03 07:10:38;;;;;;;4.199999;3.8;;;;;;;22.66;70.75977;95383.54;;;;
2022/06/03 07:11:46;;;;;;;4.199999;3.8;;;;;;;22.66;70.75977;95383.54;;;;
2022/06/03 07:12:53;;;;;;;4.199999;3.8;;;;;;;22.66;70.75977;95383.54;;;;
2022/06/03 07:14:01;;;;;;;4.199999;3.8;;;;;;;22.66;70.75977;95383.54;;;;
2022/06/03 07:15:06;;;;;;;4.199999;3.8;;;;;;;22.66;70.75977;95383.54;;;;
2022/06/03 07:16:13;;;;;;;4.199999;3.8;;;;;;;22.66;70.75977;95383.54;;;;
2022/06/03 07:22:56;;;;;;;3.7;3.4;;;;;;;24.87;67.58105;95341.11;;;;
2022/06/03 07:24:06;;;;;;;3.7;3.4;;;;;;;24.87;67.58105;95341.11;;;;
2022/06/03 07:25:15;;;;;;;3.7;3.4;;;;;;;24.87;67.58105;95341.11;;;;
2022/06/03 07:26:24;;;;;;;3.7;3.4;;;;;;;24.87;67.58105;95341.11;;;;
2022/06/03 07:27:35;;;;;;;3.7;3.4;;;;;;;26.4;65.21582;95345.9;;;;
2022/06/03 07:28:54;;;;;;;3.7;3.4;;;;;;;26.4;65.21582;95345.9;;;;
2022/06/03 07:30:04;;;;;;;3.7;3.4;;;;;;;26.4;65.21582;95345.9;;;;
2022/06/03 07:31:11;;;;;;;3.7;3.4;;;;;;;26.4;65.21582;95345.9;;;;
2022/06/03 07:32:20;;;;;;;3.7;3.4;;;;;;;26.4;65.21582;95345.9;;;;
2022/06/03 07:33:25;;;;;;;3.7;3.4;;;;;;;26.4;65.21582;95345.9;;;;
2022/06/03 07:34:39;;;;;;;3.7;3.4;;;;;;;26.4;65.21582;95345.9;;;;
2022/06/03 07:35:45;;;;;;;3.7;3.4;;;;;;;26.4;65.21582;95345.9;;;;
2022/06/03 07:36:53;;;;;;;3.7;3.4;;;;;;;26.4;65.21582;95345.9;;;;
2022/06/03 07:38:01;;;;;;;3.7;3.4;;;;;;;26.4;65.21582;95345.9;;;;
2022/06/03 07:39:09;;;;;;;4;3.7;;;;;;;27.35;62.80664;95327.79;;;;
2022/06/03 07:40:24;;;;;;;4;3.7;;;;;;;27.35;62.80664;95327.79;;;;
2022/06/03 07:41:32;;;;;;;4;3.7;;;;;;;27.35;62.80664;95327.79;;;;
2022/06/03 07:42:39;;;;;;;4;3.7;;;;;;;27.35;62.80664;95327.79;;;;
2022/06/03 07:43:47;;;;;;;4;3.7;;;;;;;27.35;62.80664;95327.79;;;;
2022/06/03 07:44:52;;;;;;;4;3.7;;;;;;;27.35;62.80664;95327.79;;;;
2022/06/03 07:46:00;;;;;;;4;3.7;;;;;;;27.35;62.80664;95327.79;;;;
2022/06/03 07:47:06;;;;;;;4;3.7;;;;;;;27.35;62.80664;95327.79;;;;
2022/06/03 07:48:09;;;;;;;4;3.7;;;;;;;27.35;62.80664;95327.79;;;;
2022/06/03 07:49:12;;;;;;;3.65;3.1;;;;;;;27.87;61.93555;95318.02;;;;
2022/06/03 07:50:15;;;;;;;3.65;3.1;;;;;;;27.87;61.93555;95318.02;;;;
2022/06/03 07:51:19;;;;;;;3.65;3.1;;;;;;;27.87;61.93555;95318.02;;;;
2022/06/03 07:52:25;;;;;;;3.65;3.1;;;;;;;27.87;61.93555;95318.02;;;;
2022/06/03 07:53:33;;;;;;;3.65;3.1;;;;;;;27.87;61.93555;95318.02;;;;
2022/06/03 07:54:43;;;;;;;3.65;3.1;;;;;;;27.87;61.93555;95318.02;;;;
2022/06/03 07:55:51;;;;;;;3.65;3.1;;;;;;;27.87;61.93555;95318.02;;;;
2022/06/03 07:56:54;;;;;;;3.65;3.1;;;;;;;27.87;61.93555;95318.02;;;;
2022/06/03 07:58:05;;;;;;;3.65;3.1;;;;;;;27.87;61.93555;95318.02;;;;
2022/06/03 07:59:09;;;;;;;3.65;3.1;;;;;;;27.87;61.93555;95318.02;;;;
2022/06/03 08:00:16;;;;;;;3.4;3.1;;;;;;;28.28;60.81055;95321.23;;;;
2022/06/03 08:01:18;;;;;;;3.4;3.1;;;;;;;28.28;60.81055;95321.23;;;;
2022/06/03 08:02:21;;;;;;;3.4;3.1;;;;;;;28.28;60.81055;95321.23;;;;
2022/06/03 08:03:23;;;;;;;3.4;3.1;;;;;;;28.28;60.81055;95321.23;;;;
2022/06/03 08:04:25;;;;;;;3.4;3.1;;;;;;;28.28;60.81055;95321.23;;;;
2022/06/03 08:05:27;;;;;;;3.4;3.1;;;;;;;28.28;60.81055;95321.23;;;;
2022/06/03 08:06:31;;;;;;;3.4;3.1;;;;;;;28.28;60.81055;95321.23;;;;
2022/06/03 08:12:49;;;;;;;3.8;3.4;;;;;;;28.66;59.77051;95315.35;;;;
2022/06/03 08:13:56;;;;;;;3.8;3.4;;;;;;;28.66;59.77051;95315.35;;;;
2022/06/03 08:14:59;;;;;;;3.8;3.4;;;;;;;28.66;59.77051;95315.35;;;;
2022/06/03 08:16:12;;;;;;;3.8;3.4;;;;;;;28.66;59.77051;95315.35;;;;
2022/06/03 08:17:23;;;;;;;3.8;3.4;;;;;;;28.66;59.77051;95315.35;;;;
2022/06/03 08:18:25;;;;;;;3.8;3.4;;;;;;;28.66;59.77051;95315.35;;;;
2022/06/03 08:19:30;;;;;;;3.8;3.4;;;;;;;28.66;59.77051;95315.35;;;;
2022/06/03 08:20:34;;;;;;;3.8;3.4;;;;;;;28.66;59.77051;95315.35;;;;
2022/06/03 08:21:42;;;;;;;3.6;3.3;;;;;;;28.89;58.77734;95316.14;;;;
2022/06/03 08:22:46;;;;;;;3.6;3.3;;;;;;;28.89;58.77734;95316.14;;;;
2022/06/03 08:23:47;;;;;;;3.6;3.3;;;;;;;28.89;58.77734;95316.14;;;;
2022/06/03 08:24:48;;;;;;;3.6;3.3;;;;;;;28.89;58.77734;95316.14;;;;
2022/06/03 08:25:52;;;;;;;3.6;3.3;;;;;;;28.89;58.77734;95316.14;;;;
2022/06/03 08:26:57;;;;;;;3.6;3.3;;;;;;;28.89;58.77734;95316.14;;;;
2022/06/03 08:28:01;;;;;;;3.6;3.3;;;;;;;28.89;58.77734;95316.14;;;;
2022/06/03 08:29:02;;;;;;;3.6;3.3;;;;;;;28.89;58.77734;95316.14;;;;
2022/06/03 08:30:12;;;;;;;3.6;3.3;;;;;;;28.89;58.77734;95316.14;;;;
2022/06/03 08:31:18;;;;;;;3.6;3.3;;;;;;;28.89;58.77734;95316.14;;;;
2022/06/03 08:32:22;;;;;;;3.6;3.4;;;;;;;29.11;58.02539;95298.79;;;;
2022/06/03 08:33:30;;;;;;;3.6;3.4;;;;;;;29.11;58.02539;95298.79;;;;
2022/06/03 08:34:39;;;;;;;3.6;3.4;;;;;;;29.11;58.02539;95298.79;;;;
2022/06/03 08:35:45;;;;;;;3.6;3.4;;;;;;;29.11;58.02539;95298.79;;;;
2022/06/03 08:36:48;;;;;;;3.6;3.4;;;;;;;29.11;58.02539;95298.79;;;;
2022/06/03 08:37:48;;;;;;;3.6;3.4;;;;;;;29.11;58.02539;95298.79;;;;
2022/06/03 08:38:52;;;;;;;3.6;3.4;;;;;;;29.11;58.02539;95298.79;;;;
2022/06/03 08:39:58;;;;;;;3.6;3.4;;;;;;;29.11;58.02539;95298.79;;;;
2022/06/03 08:41:02;;;;;;;3.6;3.4;;;;;;;29.11;58.02539;95298.79;;;;
2022/06/03 08:42:19;;;;;;;3.75;3.45;;;;;;;29.54;56.97559;95298.38;;;;
2022/06/03 08:43:29;;;;;;;3.75;3.45;;;;;;;29.54;56.97559;95298.38;;;;
2022/06/03 08:44:54;;;;;;;3.75;3.45;;;;;;;29.54;56.97559;95298.38;;;;
2022/06/03 08:46:14;;;;;;;3.75;3.45;;;;;;;29.54;56.97559;95298.38;;;;